sensor_id;sensor_type;location;lat;lon;timestamp;temperature;humidity
6964;DHT22;3522;50.856;7.278;2023-06-10T00:01:54;20.20;99.90
6964;DHT22;3522;50.856;7.278;2023-06-10T00:04:25;20.10;99.90
6964;DHT22;3522;50.856;7.278;2023-06-10T00:06:52;20.10;99.90
6964;DHT22;3522;50.856;7.278;2023-06-10T00:09:20;20.10;99.90
6964;DHT22;3522;50.856;7.278;2023-06-10T00:11:48;20.00;99.90
6964;DHT22;3522;50.856;7.278;2023-06-10T00:14:14;20.00;99.90
6964;DHT22;3522;50.856;7.278;2023-06-10T00:16:41;20.00;99.90
6964;DHT22;3522;50.856;7.278;2023-06-10T00:19:10;20.00;99.90
6964;DHT22;3522;50.856;7.278;2023-06-10T00:21:39;19.90;99.90
6964;DHT22;3522;50.856;7.278;2023-06-10T00:24:06;19.90;99.90
6964;DHT22;3522;50.856;7.278;2023-06-10T00:26:38;19.80;99.90
6964;DHT22;3522;50.856;7.278;2023-06-10T00:29:05;19.80;99.90
6964;DHT22;3522;50.856;7.278;2023-06-10T00:31:31;19.80;99.90
6964;DHT22;3522;50.856;7.278;2023-06-10T00:33:58;19.70;99.90
6964;DHT22;3522;50.856;7.278;2023-06-10T00:36:25;19.70;99.90
6964;DHT22;3522;50.856;7.278;2023-06-10T00:38:52;19.70;99.90
6964;DHT22;3522;50.856;7.278;2023-06-10T00:41:18;19.70;99.90
6964;DHT22;3522;50.856;7.278;2023-06-10T00:43:46;19.70;99.90
6964;DHT22;3522;50.856;7.278;2023-06-10T00:46:13;19.60;99.90
6964;DHT22;3522;50.856;7.278;2023-06-10T00:48:41;19.60;99.90
6964;DHT22;3522;50.856;7.278;2023-06-10T00:51:08;19.60;99.90
6964;DHT22;3522;50.856;7.278;2023-06-10T00:53:35;19.60;99.90
6964;DHT22;3522;50.856;7.278;2023-06-10T00:56:03;19.60;99.90
6964;DHT22;3522;50.856;7.278;2023-06-10T00:58:29;19.60;99.90
6964;DHT22;3522;50.856;7.278;2023-06-10T01:00:57;19.60;99.90
6964;DHT22;3522;50.856;7.278;2023-06-10T01:03:24;19.60;99.90
6964;DHT22;3522;50.856;7.278;2023-06-10T01:05:57;19.50;99.90
6964;DHT22;3522;50.856;7.278;2023-06-10T01:08:28;19.50;99.90
6964;DHT22;3522;50.856;7.278;2023-06-10T01:10:59;19.50;99.90
6964;DHT22;3522;50.856;7.278;2023-06-10T01:13:26;19.40;99.90
6964;DHT22;3522;50.856;7.278;2023-06-10T01:15:54;19.40;99.90
6964;DHT22;3522;50.856;7.278;2023-06-10T01:18:29;19.40;99.90
6964;DHT22;3522;50.856;7.278;2023-06-10T01:20:56;19.40;99.90
6964;DHT22;3522;50.856;7.278;2023-06-10T01:23:24;19.40;99.90
6964;DHT22;3522;50.856;7.278;2023-06-10T01:25:52;19.40;99.90
6964;DHT22;3522;50.856;7.278;2023-06-10T01:28:21;19.40;99.90
6964;DHT22;3522;50.856;7.278;2023-06-10T01:30:59;19.40;99.90
6964;DHT22;3522;50.856;7.278;2023-06-10T01:33:27;19.40;99.90
6964;DHT22;3522;50.856;7.278;2023-06-10T01:35:54;19.30;99.90
6964;DHT22;3522;50.856;7.278;2023-06-10T01:38:24;19.30;99.90
6964;DHT22;3522;50.856;7.278;2023-06-10T01:40:51;19.30;99.90
6964;DHT22;3522;50.856;7.278;2023-06-10T01:43:19;19.30;99.90
6964;DHT22;3522;50.856;7.278;2023-06-10T01:45:46;19.30;99.90
6964;DHT22;3522;50.856;7.278;2023-06-10T01:48:12;19.30;99.90
6964;DHT22;3522;50.856;7.278;2023-06-10T01:50:39;19.30;99.90
6964;DHT22;3522;50.856;7.278;2023-06-10T01:53:05;19.30;99.90
6964;DHT22;3522;50.856;7.278;2023-06-10T01:55:33;19.20;99.90
6964;DHT22;3522;50.856;7.278;2023-06-10T01:58:00;19.30;99.90
6964;DHT22;3522;50.856;7.278;2023-06-10T02:00:26;19.30;99.90
6964;DHT22;3522;50.856;7.278;2023-06-10T02:02:53;19.20;99.90
6964;DHT22;3522;50.856;7.278;2023-06-10T02:05:20;19.20;99.90
6964;DHT22;3522;50.856;7.278;2023-06-10T02:07:47;19.20;99.90
6964;DHT22;3522;50.856;7.278;2023-06-10T02:10:13;19.20;99.90
6964;DHT22;3522;50.856;7.278;2023-06-10T02:12:41;19.20;99.90
6964;DHT22;3522;50.856;7.278;2023-06-10T02:15:08;19.20;99.90
6964;DHT22;3522;50.856;7.278;2023-06-10T02:17:34;19.10;99.90
6964;DHT22;3522;50.856;7.278;2023-06-10T02:20:01;19.10;99.90
6964;DHT22;3522;50.856;7.278;2023-06-10T02:22:29;19.10;99.90
6964;DHT22;3522;50.856;7.278;2023-06-10T02:24:56;19.20;99.90
6964;DHT22;3522;50.856;7.278;2023-06-10T02:27:22;19.10;99.90
6964;DHT22;3522;50.856;7.278;2023-06-10T02:29:50;19.10;99.90
6964;DHT22;3522;50.856;7.278;2023-06-10T02:32:17;19.10;99.90
6964;DHT22;3522;50.856;7.278;2023-06-10T02:34:43;19.10;99.90
6964;DHT22;3522;50.856;7.278;2023-06-10T02:37:11;19.10;99.90
6964;DHT22;3522;50.856;7.278;2023-06-10T02:39:37;19.10;99.90
6964;DHT22;3522;50.856;7.278;2023-06-10T02:42:04;19.10;99.90
6964;DHT22;3522;50.856;7.278;2023-06-10T02:44:31;19.00;99.90
6964;DHT22;3522;50.856;7.278;2023-06-10T02:46:59;19.10;99.90
6964;DHT22;3522;50.856;7.278;2023-06-10T02:49:26;19.10;99.90
6964;DHT22;3522;50.856;7.278;2023-06-10T02:51:53;19.10;99.90
6964;DHT22;3522;50.856;7.278;2023-06-10T02:54:19;19.00;99.90
6964;DHT22;3522;50.856;7.278;2023-06-10T02:56:46;19.00;99.90
6964;DHT22;3522;50.856;7.278;2023-06-10T02:59:13;19.00;99.90
6964;DHT22;3522;50.856;7.278;2023-06-10T03:01:39;19.00;99.90
6964;DHT22;3522;50.856;7.278;2023-06-10T03:04:07;19.00;99.90
6964;DHT22;3522;50.856;7.278;2023-06-10T03:06:34;19.00;99.90
6964;DHT22;3522;50.856;7.278;2023-06-10T03:09:01;18.90;99.90
6964;DHT22;3522;50.856;7.278;2023-06-10T03:11:29;18.90;99.90
6964;DHT22;3522;50.856;7.278;2023-06-10T03:13:56;19.00;99.90
6964;DHT22;3522;50.856;7.278;2023-06-10T03:16:22;19.00;99.90
6964;DHT22;3522;50.856;7.278;2023-06-10T03:18:50;18.90;99.90
6964;DHT22;3522;50.856;7.278;2023-06-10T03:21:18;18.80;99.90
6964;DHT22;3522;50.856;7.278;2023-06-10T03:23:45;18.80;99.90
6964;DHT22;3522;50.856;7.278;2023-06-10T03:26:11;18.80;99.90
6964;DHT22;3522;50.856;7.278;2023-06-10T03:28:40;18.80;99.90
6964;DHT22;3522;50.856;7.278;2023-06-10T03:31:07;18.70;99.90
6964;DHT22;3522;50.856;7.278;2023-06-10T03:33:34;18.80;99.90
6964;DHT22;3522;50.856;7.278;2023-06-10T03:36:01;18.70;99.90
6964;DHT22;3522;50.856;7.278;2023-06-10T03:38:29;18.80;99.90
6964;DHT22;3522;50.856;7.278;2023-06-10T03:40:55;18.70;99.90
6964;DHT22;3522;50.856;7.278;2023-06-10T03:43:22;18.70;99.90
6964;DHT22;3522;50.856;7.278;2023-06-10T03:45:49;18.70;99.90
6964;DHT22;3522;50.856;7.278;2023-06-10T03:48:15;18.70;99.90
6964;DHT22;3522;50.856;7.278;2023-06-10T03:50:42;18.60;99.90
6964;DHT22;3522;50.856;7.278;2023-06-10T03:53:08;18.70;99.90
6964;DHT22;3522;50.856;7.278;2023-06-10T03:55:36;18.60;99.90
6964;DHT22;3522;50.856;7.278;2023-06-10T03:58:03;18.60;99.90
6964;DHT22;3522;50.856;7.278;2023-06-10T04:00:29;18.60;99.90
6964;DHT22;3522;50.856;7.278;2023-06-10T04:03:06;18.60;99.90
6964;DHT22;3522;50.856;7.278;2023-06-10T04:05:34;18.60;99.90
6964;DHT22;3522;50.856;7.278;2023-06-10T04:08:01;18.70;99.90
6964;DHT22;3522;50.856;7.278;2023-06-10T04:10:27;18.70;99.90
6964;DHT22;3522;50.856;7.278;2023-06-10T04:12:55;18.70;99.90
6964;DHT22;3522;50.856;7.278;2023-06-10T04:15:22;18.70;99.90
6964;DHT22;3522;50.856;7.278;2023-06-10T04:17:48;18.70;99.90
6964;DHT22;3522;50.856;7.278;2023-06-10T04:20:15;18.80;99.90
6964;DHT22;3522;50.856;7.278;2023-06-10T04:22:41;18.70;99.90
6964;DHT22;3522;50.856;7.278;2023-06-10T04:25:09;18.80;99.90
6964;DHT22;3522;50.856;7.278;2023-06-10T04:27:36;18.80;99.90
6964;DHT22;3522;50.856;7.278;2023-06-10T04:30:05;18.80;99.90
6964;DHT22;3522;50.856;7.278;2023-06-10T04:32:31;18.80;99.90
6964;DHT22;3522;50.856;7.278;2023-06-10T04:34:59;18.80;99.90
6964;DHT22;3522;50.856;7.278;2023-06-10T04:37:25;18.80;99.90
6964;DHT22;3522;50.856;7.278;2023-06-10T04:39:54;18.80;99.90
6964;DHT22;3522;50.856;7.278;2023-06-10T04:42:22;18.90;99.90
6964;DHT22;3522;50.856;7.278;2023-06-10T04:44:49;18.90;99.90
6964;DHT22;3522;50.856;7.278;2023-06-10T04:47:17;18.90;99.90
6964;DHT22;3522;50.856;7.278;2023-06-10T04:49:43;18.90;99.90
6964;DHT22;3522;50.856;7.278;2023-06-10T04:52:10;19.00;99.90
6964;DHT22;3522;50.856;7.278;2023-06-10T04:54:36;19.00;99.90
6964;DHT22;3522;50.856;7.278;2023-06-10T04:57:04;19.00;99.90
6964;DHT22;3522;50.856;7.278;2023-06-10T04:59:31;19.10;99.90
6964;DHT22;3522;50.856;7.278;2023-06-10T05:01:57;19.20;99.90
6964;DHT22;3522;50.856;7.278;2023-06-10T05:04:25;19.30;99.90
6964;DHT22;3522;50.856;7.278;2023-06-10T05:06:52;19.30;99.90
6964;DHT22;3522;50.856;7.278;2023-06-10T05:09:18;19.40;99.90
6964;DHT22;3522;50.856;7.278;2023-06-10T05:11:45;19.40;99.90
6964;DHT22;3522;50.856;7.278;2023-06-10T05:14:11;19.50;99.90
6964;DHT22;3522;50.856;7.278;2023-06-10T05:16:38;19.50;99.90
6964;DHT22;3522;50.856;7.278;2023-06-10T05:19:04;19.60;99.90
6964;DHT22;3522;50.856;7.278;2023-06-10T05:21:32;19.70;99.90
6964;DHT22;3522;50.856;7.278;2023-06-10T05:23:59;19.70;99.90
6964;DHT22;3522;50.856;7.278;2023-06-10T05:26:25;19.80;99.90
6964;DHT22;3522;50.856;7.278;2023-06-10T05:28:52;19.90;99.90
6964;DHT22;3522;50.856;7.278;2023-06-10T05:31:19;19.90;99.90
6964;DHT22;3522;50.856;7.278;2023-06-10T05:33:45;20.00;99.90
6964;DHT22;3522;50.856;7.278;2023-06-10T05:36:12;20.10;99.90
6964;DHT22;3522;50.856;7.278;2023-06-10T05:38:40;20.20;99.90
6964;DHT22;3522;50.856;7.278;2023-06-10T05:41:06;20.30;99.90
6964;DHT22;3522;50.856;7.278;2023-06-10T05:43:33;20.40;99.90
6964;DHT22;3522;50.856;7.278;2023-06-10T05:45:59;20.50;99.90
6964;DHT22;3522;50.856;7.278;2023-06-10T05:48:26;20.70;99.90
6964;DHT22;3522;50.856;7.278;2023-06-10T05:50:52;20.90;99.90
6964;DHT22;3522;50.856;7.278;2023-06-10T05:53:19;21.20;99.90
6964;DHT22;3522;50.856;7.278;2023-06-10T05:55:47;21.50;99.90
6964;DHT22;3522;50.856;7.278;2023-06-10T05:58:14;21.80;99.90
6964;DHT22;3522;50.856;7.278;2023-06-10T06:00:40;22.20;99.90
6964;DHT22;3522;50.856;7.278;2023-06-10T06:03:07;22.50;99.90
6964;DHT22;3522;50.856;7.278;2023-06-10T06:05:34;22.70;99.90
6964;DHT22;3522;50.856;7.278;2023-06-10T06:08:02;23.00;99.90
6964;DHT22;3522;50.856;7.278;2023-06-10T06:10:29;23.20;99.90
6964;DHT22;3522;50.856;7.278;2023-06-10T06:12:57;23.40;99.90
6964;DHT22;3522;50.856;7.278;2023-06-10T06:15:23;23.60;99.90
6964;DHT22;3522;50.856;7.278;2023-06-10T06:17:50;23.80;99.90
6964;DHT22;3522;50.856;7.278;2023-06-10T06:20:17;23.90;99.70
6964;DHT22;3522;50.856;7.278;2023-06-10T06:22:44;24.20;99.60
6964;DHT22;3522;50.856;7.278;2023-06-10T06:25:11;24.40;98.60
6964;DHT22;3522;50.856;7.278;2023-06-10T06:27:37;24.70;98.50
6964;DHT22;3522;50.856;7.278;2023-06-10T06:30:06;24.90;97.90
6964;DHT22;3522;50.856;7.278;2023-06-10T06:32:32;25.10;96.90
6964;DHT22;3522;50.856;7.278;2023-06-10T06:34:59;25.00;96.40
6964;DHT22;3522;50.856;7.278;2023-06-10T06:37:26;25.30;96.60
6964;DHT22;3522;50.856;7.278;2023-06-10T06:39:52;25.40;95.50
6964;DHT22;3522;50.856;7.278;2023-06-10T06:42:20;25.40;94.90
6964;DHT22;3522;50.856;7.278;2023-06-10T06:44:47;25.40;94.20
6964;DHT22;3522;50.856;7.278;2023-06-10T06:47:14;25.70;94.60
6964;DHT22;3522;50.856;7.278;2023-06-10T06:49:43;25.90;94.30
6964;DHT22;3522;50.856;7.278;2023-06-10T06:52:09;26.10;93.80
6964;DHT22;3522;50.856;7.278;2023-06-10T06:54:36;26.30;93.40
6964;DHT22;3522;50.856;7.278;2023-06-10T06:57:02;26.60;92.90
6964;DHT22;3522;50.856;7.278;2023-06-10T06:59:29;26.90;92.00
6964;DHT22;3522;50.856;7.278;2023-06-10T07:01:56;27.10;91.10
6964;DHT22;3522;50.856;7.278;2023-06-10T07:04:24;27.30;90.80
6964;DHT22;3522;50.856;7.278;2023-06-10T07:06:50;27.50;91.00
6964;DHT22;3522;50.856;7.278;2023-06-10T07:09:17;27.70;90.40
6964;DHT22;3522;50.856;7.278;2023-06-10T07:11:43;27.90;88.20
6964;DHT22;3522;50.856;7.278;2023-06-10T07:14:10;28.00;88.10
6964;DHT22;3522;50.856;7.278;2023-06-10T07:16:36;28.20;86.50
6964;DHT22;3522;50.856;7.278;2023-06-10T07:19:03;28.20;84.00
6964;DHT22;3522;50.856;7.278;2023-06-10T07:21:31;28.20;84.30
6964;DHT22;3522;50.856;7.278;2023-06-10T07:23:58;28.40;82.80
6964;DHT22;3522;50.856;7.278;2023-06-10T07:26:24;28.40;80.90
6964;DHT22;3522;50.856;7.278;2023-06-10T07:28:52;28.50;80.50
6964;DHT22;3522;50.856;7.278;2023-06-10T07:31:18;28.50;79.10
6964;DHT22;3522;50.856;7.278;2023-06-10T07:33:45;28.40;79.30
6964;DHT22;3522;50.856;7.278;2023-06-10T07:36:12;28.30;79.40
6964;DHT22;3522;50.856;7.278;2023-06-10T07:38:40;28.20;79.50
6964;DHT22;3522;50.856;7.278;2023-06-10T07:41:07;28.10;80.00
6964;DHT22;3522;50.856;7.278;2023-06-10T07:43:34;28.20;81.50
6964;DHT22;3522;50.856;7.278;2023-06-10T07:46:00;28.30;79.90
6964;DHT22;3522;50.856;7.278;2023-06-10T07:48:27;28.50;78.10
6964;DHT22;3522;50.856;7.278;2023-06-10T07:50:54;29.00;79.00
6964;DHT22;3522;50.856;7.278;2023-06-10T07:53:20;29.10;75.50
6964;DHT22;3522;50.856;7.278;2023-06-10T07:55:48;29.20;76.50
6964;DHT22;3522;50.856;7.278;2023-06-10T07:58:15;29.30;72.70
6964;DHT22;3522;50.856;7.278;2023-06-10T08:00:41;29.70;74.40
6964;DHT22;3522;50.856;7.278;2023-06-10T08:03:08;29.80;72.70
6964;DHT22;3522;50.856;7.278;2023-06-10T08:05:34;29.90;72.60
6964;DHT22;3522;50.856;7.278;2023-06-10T08:08:01;30.20;71.80
6964;DHT22;3522;50.856;7.278;2023-06-10T08:10:28;30.20;71.50
6964;DHT22;3522;50.856;7.278;2023-06-10T08:12:56;30.50;70.70
6964;DHT22;3522;50.856;7.278;2023-06-10T08:15:22;30.70;70.10
6964;DHT22;3522;50.856;7.278;2023-06-10T08:17:49;30.90;69.00
6964;DHT22;3522;50.856;7.278;2023-06-10T08:20:17;30.80;67.40
6964;DHT22;3522;50.856;7.278;2023-06-10T08:22:44;31.00;67.20
6964;DHT22;3522;50.856;7.278;2023-06-10T08:25:10;31.00;64.80
6964;DHT22;3522;50.856;7.278;2023-06-10T08:27:37;31.00;67.00
6964;DHT22;3522;50.856;7.278;2023-06-10T08:30:05;30.90;64.70
6964;DHT22;3522;50.856;7.278;2023-06-10T08:32:33;30.70;65.80
6964;DHT22;3522;50.856;7.278;2023-06-10T08:34:59;30.90;64.30
6964;DHT22;3522;50.856;7.278;2023-06-10T08:37:26;31.00;64.70
6964;DHT22;3522;50.856;7.278;2023-06-10T08:39:52;31.10;64.60
6964;DHT22;3522;50.856;7.278;2023-06-10T08:42:21;31.60;64.10
6964;DHT22;3522;50.856;7.278;2023-06-10T08:44:48;32.10;63.00
6964;DHT22;3522;50.856;7.278;2023-06-10T08:47:17;32.50;62.50
6964;DHT22;3522;50.856;7.278;2023-06-10T08:49:44;32.70;60.60
6964;DHT22;3522;50.856;7.278;2023-06-10T08:52:14;32.80;59.20
6964;DHT22;3522;50.856;7.278;2023-06-10T08:54:42;32.90;60.30
6964;DHT22;3522;50.856;7.278;2023-06-10T08:57:09;33.10;58.50
6964;DHT22;3522;50.856;7.278;2023-06-10T08:59:36;33.00;57.40
6964;DHT22;3522;50.856;7.278;2023-06-10T09:02:03;33.30;57.00
6964;DHT22;3522;50.856;7.278;2023-06-10T09:04:32;33.30;56.80
6964;DHT22;3522;50.856;7.278;2023-06-10T09:06:59;33.20;56.30
6964;DHT22;3522;50.856;7.278;2023-06-10T09:09:26;33.30;56.50
6964;DHT22;3522;50.856;7.278;2023-06-10T09:11:54;33.30;55.90
6964;DHT22;3522;50.856;7.278;2023-06-10T09:14:21;33.50;55.80
6964;DHT22;3522;50.856;7.278;2023-06-10T09:16:48;33.70;55.90
6964;DHT22;3522;50.856;7.278;2023-06-10T09:19:15;33.50;54.50
6964;DHT22;3522;50.856;7.278;2023-06-10T09:21:43;33.60;56.20
6964;DHT22;3522;50.856;7.278;2023-06-10T09:24:10;33.60;56.50
6964;DHT22;3522;50.856;7.278;2023-06-10T09:26:36;33.50;55.60
6964;DHT22;3522;50.856;7.278;2023-06-10T09:29:03;33.50;55.20
6964;DHT22;3522;50.856;7.278;2023-06-10T09:31:31;33.50;55.50
6964;DHT22;3522;50.856;7.278;2023-06-10T09:34:04;33.70;55.90
6964;DHT22;3522;50.856;7.278;2023-06-10T09:36:31;34.00;54.60
6964;DHT22;3522;50.856;7.278;2023-06-10T09:38:59;34.40;53.20
6964;DHT22;3522;50.856;7.278;2023-06-10T09:41:31;34.60;51.70
6964;DHT22;3522;50.856;7.278;2023-06-10T09:43:58;34.40;53.20
6964;DHT22;3522;50.856;7.278;2023-06-10T09:46:25;34.20;51.00
6964;DHT22;3522;50.856;7.278;2023-06-10T09:48:57;34.30;52.00
6964;DHT22;3522;50.856;7.278;2023-06-10T09:51:23;34.60;49.80
6964;DHT22;3522;50.856;7.278;2023-06-10T09:53:50;34.60;48.90
6964;DHT22;3522;50.856;7.278;2023-06-10T09:56:18;34.90;49.00
6964;DHT22;3522;50.856;7.278;2023-06-10T09:58:46;34.60;47.80
6964;DHT22;3522;50.856;7.278;2023-06-10T10:01:13;34.40;47.50
6964;DHT22;3522;50.856;7.278;2023-06-10T10:03:44;34.20;48.30
6964;DHT22;3522;50.856;7.278;2023-06-10T10:06:11;34.40;46.00
6964;DHT22;3522;50.856;7.278;2023-06-10T10:08:38;34.70;46.50
6964;DHT22;3522;50.856;7.278;2023-06-10T10:11:05;34.00;47.00
6964;DHT22;3522;50.856;7.278;2023-06-10T10:13:33;34.20;47.30
6964;DHT22;3522;50.856;7.278;2023-06-10T10:16:01;34.30;47.70
6964;DHT22;3522;50.856;7.278;2023-06-10T10:18:30;34.30;48.90
6964;DHT22;3522;50.856;7.278;2023-06-10T10:20:58;34.30;46.80
6964;DHT22;3522;50.856;7.278;2023-06-10T10:23:29;34.30;45.70
6964;DHT22;3522;50.856;7.278;2023-06-10T10:25:58;34.30;46.10
6964;DHT22;3522;50.856;7.278;2023-06-10T10:28:28;34.50;44.10
6964;DHT22;3522;50.856;7.278;2023-06-10T10:30:58;34.60;43.60
6964;DHT22;3522;50.856;7.278;2023-06-10T10:33:28;34.80;44.30
6964;DHT22;3522;50.856;7.278;2023-06-10T10:35:58;35.10;43.70
6964;DHT22;3522;50.856;7.278;2023-06-10T10:38:24;35.50;43.00
6964;DHT22;3522;50.856;7.278;2023-06-10T10:40:51;35.70;42.30
6964;DHT22;3522;50.856;7.278;2023-06-10T10:43:18;35.80;42.30
6964;DHT22;3522;50.856;7.278;2023-06-10T10:45:45;35.60;41.30
6964;DHT22;3522;50.856;7.278;2023-06-10T10:48:13;34.80;41.80
6964;DHT22;3522;50.856;7.278;2023-06-10T10:50:41;34.90;41.60
6964;DHT22;3522;50.856;7.278;2023-06-10T10:53:07;34.70;41.20
6964;DHT22;3522;50.856;7.278;2023-06-10T10:55:34;34.80;42.50
6964;DHT22;3522;50.856;7.278;2023-06-10T10:58:02;34.90;41.70
6964;DHT22;3522;50.856;7.278;2023-06-10T11:00:29;34.80;42.60
6964;DHT22;3522;50.856;7.278;2023-06-10T11:02:57;35.00;43.10
6964;DHT22;3522;50.856;7.278;2023-06-10T11:05:32;35.00;42.70
6964;DHT22;3522;50.856;7.278;2023-06-10T11:08:01;34.80;41.70
6964;DHT22;3522;50.856;7.278;2023-06-10T11:10:29;34.70;42.60
6964;DHT22;3522;50.856;7.278;2023-06-10T11:12:56;34.40;42.60
6964;DHT22;3522;50.856;7.278;2023-06-10T11:15:23;34.40;42.40
6964;DHT22;3522;50.856;7.278;2023-06-10T11:20:58;34.90;43.10
6964;DHT22;3522;50.856;7.278;2023-06-10T11:23:38;34.10;42.90
6964;DHT22;3522;50.856;7.278;2023-06-10T11:26:15;33.90;41.20
6964;DHT22;3522;50.856;7.278;2023-06-10T11:31:27;33.00;43.30
6964;DHT22;3522;50.856;7.278;2023-06-10T11:33:54;33.10;44.20
6964;DHT22;3522;50.856;7.278;2023-06-10T11:36:23;33.20;44.70
6964;DHT22;3522;50.856;7.278;2023-06-10T11:38:50;33.40;44.30
6964;DHT22;3522;50.856;7.278;2023-06-10T11:41:19;33.30;43.70
6964;DHT22;3522;50.856;7.278;2023-06-10T11:43:46;33.20;43.60
6964;DHT22;3522;50.856;7.278;2023-06-10T11:46:13;32.40;42.00
6964;DHT22;3522;50.856;7.278;2023-06-10T11:48:46;31.90;43.20
6964;DHT22;3522;50.856;7.278;2023-06-10T11:51:14;31.80;44.30
6964;DHT22;3522;50.856;7.278;2023-06-10T11:53:44;31.70;43.60
6964;DHT22;3522;50.856;7.278;2023-06-10T11:56:11;31.90;44.70
6964;DHT22;3522;50.856;7.278;2023-06-10T11:58:37;32.50;43.40
6964;DHT22;3522;50.856;7.278;2023-06-10T12:01:06;33.10;42.00
6964;DHT22;3522;50.856;7.278;2023-06-10T12:03:35;33.40;40.30
6964;DHT22;3522;50.856;7.278;2023-06-10T12:06:03;33.40;40.60
6964;DHT22;3522;50.856;7.278;2023-06-10T12:08:30;33.50;39.80
6964;DHT22;3522;50.856;7.278;2023-06-10T12:10:58;33.70;39.50
6964;DHT22;3522;50.856;7.278;2023-06-10T12:13:26;34.00;40.10
6964;DHT22;3522;50.856;7.278;2023-06-10T12:15:52;34.30;41.20
6964;DHT22;3522;50.856;7.278;2023-06-10T12:18:19;34.70;41.30
6964;DHT22;3522;50.856;7.278;2023-06-10T12:20:46;35.10;39.50
6964;DHT22;3522;50.856;7.278;2023-06-10T12:23:14;34.90;38.70
6964;DHT22;3522;50.856;7.278;2023-06-10T12:25:49;34.70;38.40
6964;DHT22;3522;50.856;7.278;2023-06-10T12:28:18;34.80;37.80
6964;DHT22;3522;50.856;7.278;2023-06-10T12:30:46;34.70;38.70
6964;DHT22;3522;50.856;7.278;2023-06-10T12:33:16;34.90;38.20
6964;DHT22;3522;50.856;7.278;2023-06-10T12:35:46;35.10;38.20
6964;DHT22;3522;50.856;7.278;2023-06-10T12:38:13;34.60;35.30
6964;DHT22;3522;50.856;7.278;2023-06-10T12:40:40;34.30;36.40
6964;DHT22;3522;50.856;7.278;2023-06-10T12:43:06;33.90;37.00
6964;DHT22;3522;50.856;7.278;2023-06-10T12:45:35;33.90;38.00
6964;DHT22;3522;50.856;7.278;2023-06-10T12:48:05;34.20;36.60
6964;DHT22;3522;50.856;7.278;2023-06-10T12:50:34;34.40;37.20
6964;DHT22;3522;50.856;7.278;2023-06-10T12:53:01;35.00;36.80
6964;DHT22;3522;50.856;7.278;2023-06-10T12:55:27;35.30;38.00
6964;DHT22;3522;50.856;7.278;2023-06-10T12:57:54;35.40;37.00
6964;DHT22;3522;50.856;7.278;2023-06-10T13:00:22;35.30;35.70
6964;DHT22;3522;50.856;7.278;2023-06-10T13:02:52;34.70;37.30
6964;DHT22;3522;50.856;7.278;2023-06-10T13:05:19;33.60;38.20
6964;DHT22;3522;50.856;7.278;2023-06-10T13:07:46;32.90;39.80
6964;DHT22;3522;50.856;7.278;2023-06-10T13:10:12;32.40;40.70
6964;DHT22;3522;50.856;7.278;2023-06-10T13:12:39;31.70;41.60
6964;DHT22;3522;50.856;7.278;2023-06-10T13:15:06;31.40;42.80
6964;DHT22;3522;50.856;7.278;2023-06-10T13:17:33;31.00;43.50
6964;DHT22;3522;50.856;7.278;2023-06-10T13:20:02;31.00;44.20
6964;DHT22;3522;50.856;7.278;2023-06-10T13:22:30;30.90;43.60
6964;DHT22;3522;50.856;7.278;2023-06-10T13:24:58;30.70;43.90
6964;DHT22;3522;50.856;7.278;2023-06-10T13:27:24;30.50;44.60
6964;DHT22;3522;50.856;7.278;2023-06-10T13:29:51;30.40;46.30
6964;DHT22;3522;50.856;7.278;2023-06-10T13:32:17;30.20;46.10
6964;DHT22;3522;50.856;7.278;2023-06-10T13:34:44;30.20;46.80
6964;DHT22;3522;50.856;7.278;2023-06-10T13:37:12;30.10;47.40
6964;DHT22;3522;50.856;7.278;2023-06-10T13:39:38;30.10;48.00
6964;DHT22;3522;50.856;7.278;2023-06-10T13:42:05;30.10;47.40
6964;DHT22;3522;50.856;7.278;2023-06-10T13:44:33;30.10;48.00
6964;DHT22;3522;50.856;7.278;2023-06-10T13:47:01;30.40;48.20
6964;DHT22;3522;50.856;7.278;2023-06-10T13:49:28;30.70;47.60
6964;DHT22;3522;50.856;7.278;2023-06-10T13:51:55;31.10;48.20
6964;DHT22;3522;50.856;7.278;2023-06-10T13:54:22;31.60;47.60
6964;DHT22;3522;50.856;7.278;2023-06-10T13:56:49;32.00;46.30
6964;DHT22;3522;50.856;7.278;2023-06-10T13:59:15;31.90;45.10
6964;DHT22;3522;50.856;7.278;2023-06-10T14:01:42;31.80;45.20
6964;DHT22;3522;50.856;7.278;2023-06-10T14:04:09;31.70;44.70
6964;DHT22;3522;50.856;7.278;2023-06-10T14:06:35;31.60;45.10
6964;DHT22;3522;50.856;7.278;2023-06-10T14:09:02;31.50;45.70
6964;DHT22;3522;50.856;7.278;2023-06-10T14:11:30;31.60;46.80
6964;DHT22;3522;50.856;7.278;2023-06-10T14:13:57;31.90;45.60
6964;DHT22;3522;50.856;7.278;2023-06-10T14:16:24;32.20;45.60
6964;DHT22;3522;50.856;7.278;2023-06-10T14:18:50;32.40;45.20
6964;DHT22;3522;50.856;7.278;2023-06-10T14:21:17;32.70;44.90
6964;DHT22;3522;50.856;7.278;2023-06-10T14:23:43;32.50;43.10
6964;DHT22;3522;50.856;7.278;2023-06-10T14:26:10;32.30;40.50
6964;DHT22;3522;50.856;7.278;2023-06-10T14:28:38;32.30;41.90
6964;DHT22;3522;50.856;7.278;2023-06-10T14:31:05;32.40;42.00
6964;DHT22;3522;50.856;7.278;2023-06-10T14:33:32;32.60;41.90
6964;DHT22;3522;50.856;7.278;2023-06-10T14:35:59;32.70;40.70
6964;DHT22;3522;50.856;7.278;2023-06-10T14:38:26;32.80;40.80
6964;DHT22;3522;50.856;7.278;2023-06-10T14:40:52;32.90;40.00
6964;DHT22;3522;50.856;7.278;2023-06-10T14:43:19;32.70;39.00
6964;DHT22;3522;50.856;7.278;2023-06-10T14:45:46;32.70;40.00
6964;DHT22;3522;50.856;7.278;2023-06-10T14:48:13;32.70;40.70
6964;DHT22;3522;50.856;7.278;2023-06-10T14:50:40;32.70;40.20
6964;DHT22;3522;50.856;7.278;2023-06-10T14:53:10;32.80;39.80
6964;DHT22;3522;50.856;7.278;2023-06-10T14:55:37;32.80;39.70
6964;DHT22;3522;50.856;7.278;2023-06-10T14:58:03;32.90;39.10
6964;DHT22;3522;50.856;7.278;2023-06-10T15:00:30;32.90;39.80
6964;DHT22;3522;50.856;7.278;2023-06-10T15:02:58;32.90;39.50
6964;DHT22;3522;50.856;7.278;2023-06-10T15:05:25;32.90;40.10
6964;DHT22;3522;50.856;7.278;2023-06-10T15:07:52;32.80;40.50
6964;DHT22;3522;50.856;7.278;2023-06-10T15:10:18;32.80;40.20
6964;DHT22;3522;50.856;7.278;2023-06-10T15:12:46;32.60;40.70
6964;DHT22;3522;50.856;7.278;2023-06-10T15:15:13;32.60;40.70
6964;DHT22;3522;50.856;7.278;2023-06-10T15:17:39;32.50;41.70
6964;DHT22;3522;50.856;7.278;2023-06-10T15:20:08;32.70;40.90
6964;DHT22;3522;50.856;7.278;2023-06-10T15:22:34;32.60;40.30
6964;DHT22;3522;50.856;7.278;2023-06-10T15:25:01;32.60;39.60
6964;DHT22;3522;50.856;7.278;2023-06-10T15:27:28;32.60;40.20
6964;DHT22;3522;50.856;7.278;2023-06-10T15:29:54;32.30;39.00
6964;DHT22;3522;50.856;7.278;2023-06-10T15:32:21;32.00;39.10
6964;DHT22;3522;50.856;7.278;2023-06-10T15:34:47;31.90;39.70
6964;DHT22;3522;50.856;7.278;2023-06-10T15:37:17;32.10;40.60
6964;DHT22;3522;50.856;7.278;2023-06-10T15:39:44;32.50;40.50
6964;DHT22;3522;50.856;7.278;2023-06-10T15:42:10;32.60;38.70
6964;DHT22;3522;50.856;7.278;2023-06-10T15:44:37;32.70;38.30
6964;DHT22;3522;50.856;7.278;2023-06-10T15:47:04;32.80;38.70
6964;DHT22;3522;50.856;7.278;2023-06-10T15:49:30;32.80;38.30
6964;DHT22;3522;50.856;7.278;2023-06-10T15:51:57;32.80;38.90
6964;DHT22;3522;50.856;7.278;2023-06-10T15:54:25;32.90;40.10
6964;DHT22;3522;50.856;7.278;2023-06-10T15:56:51;32.70;41.10
6964;DHT22;3522;50.856;7.278;2023-06-10T15:59:18;32.40;40.00
6964;DHT22;3522;50.856;7.278;2023-06-10T16:01:44;32.10;39.70
6964;DHT22;3522;50.856;7.278;2023-06-10T16:04:12;32.30;40.80
6964;DHT22;3522;50.856;7.278;2023-06-10T16:06:39;32.30;41.60
6964;DHT22;3522;50.856;7.278;2023-06-10T16:09:05;32.30;40.90